Time;durP1;ratioP1;P1;durP2;ratioP2;P2;SDS_P1;SDS_P2;PMS_P1;PMS_P2;Temp;Humidity;BMP_temperature;BMP_pressure;BME280_temperature;BME280_humidity;BME280_pressure;Samples;Min_cycle;Max_cycle;Signal;HPM_P1;HPM_P2
2024/04/20 00:00:18;;;;;;;;;;;;;;;21.30;28.07;97285.66;5456701;26;1816;-76
2024/04/20 00:02:44;;;;;;;;;;;;;;;21.51;27.76;97291.78;5424683;26;920;-76
2024/04/20 00:05:10;;;;;;;;;;;;;;;21.42;27.78;97277.56;5394763;26;728;-77
2024/04/20 00:07:36;;;;;;;;;;;;;;;21.42;27.71;97267.03;5317752;26;1303;-76
2024/04/20 00:10:01;;;;;;;;;;;;;;;21.25;28.00;97268.44;5346576;26;700;-76
2024/04/20 00:12:27;;;;;;;;;;;;;;;21.42;27.84;97267.03;5289497;26;1267;-76
2024/04/20 00:14:52;;;;;;;;;;;;;;;21.42;27.41;97271.88;5289288;26;1141;-75
2024/04/20 00:17:18;;;;;;;;;;;;;;;21.32;28.10;97252.00;5346774;26;754;-76
2024/04/20 00:19:43;;;;;;;;;;;;;;;21.39;27.88;97244.50;5346590;26;1822;-75
2024/04/20 00:22:09;;;;;;;;;;;;;;;21.33;27.92;97230.94;5311997;27;775;-76
2024/04/20 00:24:35;;;;;;;;;;;;;;;21.51;27.83;97223.84;5283965;27;829;-77
2024/04/20 00:27:00;;;;;;;;;;;;;;;21.61;27.50;97216.97;5283456;27;1267;-75
2024/04/20 00:29:26;;;;;;;;;;;;;;;21.31;27.92;97210.81;5312016;27;735;-76
2024/04/20 00:31:52;;;;;;;;;;;;;;;21.21;27.81;97217.66;5283465;27;770;-76
2024/04/20 00:34:17;;;;;;;;;;;;;;;21.25;28.02;97209.81;5310953;27;791;-76
2024/04/20 00:36:43;;;;;;;;;;;;;;;21.39;27.83;97202.84;5283461;27;791;-75
2024/04/20 00:39:09;;;;;;;;;;;;;;;21.54;27.54;97194.59;5307680;26;1130;-76
2024/04/20 00:41:34;;;;;;;;;;;;;;;21.49;27.40;97198.03;5346455;26;1830;-76
2024/04/20 00:44:00;;;;;;;;;;;;;;;21.18;28.13;97190.25;5346286;26;743;-77
2024/04/20 00:46:26;;;;;;;;;;;;;;;21.26;27.90;97180.28;5346257;26;699;-76
2024/04/20 00:48:52;;;;;;;;;;;;;;;21.12;28.37;97191.34;5346154;26;806;-76
2024/04/20 00:51:17;;;;;;;;;;;;;;;21.59;27.52;97191.16;5289075;26;842;-75
2024/04/20 00:53:43;;;;;;;;;;;;;;;21.37;27.78;97190.41;5425954;26;824;-76
2024/04/20 00:56:08;;;;;;;;;;;;;;;21.43;27.51;97180.06;5453947;26;769;-76
2024/04/20 00:58:34;;;;;;;;;;;;;;;21.53;27.51;97190.19;5424532;26;845;-76
2024/04/20 01:01:00;;;;;;;;;;;;;;;21.33;27.92;97205.47;5424045;26;1830;-75
2024/04/20 01:03:26;;;;;;;;;;;;;;;21.52;27.61;97206.38;5424056;26;893;-75
2024/04/20 01:05:52;;;;;;;;;;;;;;;21.38;27.80;97197.66;5423647;26;848;-75
2024/04/20 01:08:18;;;;;;;;;;;;;;;21.28;27.87;97197.56;5455698;26;702;-76
2024/04/20 01:10:44;;;;;;;;;;;;;;;21.52;27.52;97202.78;5453680;26;831;-75
2024/04/20 01:13:09;;;;;;;;;;;;;;;21.67;27.20;97198.13;5455317;26;733;-76
2024/04/20 01:15:35;;;;;;;;;;;;;;;21.39;27.67;97202.06;5393763;26;821;-76
2024/04/20 01:18:01;;;;;;;;;;;;;;;21.22;27.94;97202.25;5423702;26;686;-76
2024/04/20 01:20:26;;;;;;;;;;;;;;;21.33;27.75;97207.53;5423643;26;1912;-76
2024/04/20 01:22:52;;;;;;;;;;;;;;;21.36;27.87;97200.16;5455415;26;730;-76
2024/04/20 01:25:17;;;;;;;;;;;;;;;21.40;27.64;97190.28;5423697;26;800;-75
2024/04/20 01:27:44;;;;;;;;;;;;;;;21.41;27.83;97191.06;5455758;26;1017;-76
2024/04/20 01:30:12;;;;;;;;;;;;;;;21.55;27.51;97184.84;5423446;26;1076;-76
2024/04/20 01:32:37;;;;;;;;;;;;;;;21.24;28.07;97174.28;5423398;26;808;-75
2024/04/20 01:35:03;;;;;;;;;;;;;;;21.46;27.60;97162.19;5455215;26;770;-75
2024/04/20 01:37:29;;;;;;;;;;;;;;;21.30;27.80;97172.47;5423138;26;749;-76
2024/04/20 01:39:54;;;;;;;;;;;;;;;21.33;27.79;97162.25;5423045;26;1825;-75
2024/04/20 01:42:20;;;;;;;;;;;;;;;21.50;27.60;97154.31;5454957;26;785;-75
2024/04/20 01:44:45;;;;;;;;;;;;;;;21.42;27.71;97141.72;5454940;26;764;-76
2024/04/20 01:47:11;;;;;;;;;;;;;;;21.29;27.69;97150.25;5457341;26;852;-76
2024/04/20 01:49:36;;;;;;;;;;;;;;;21.46;27.54;97154.47;5457926;26;940;-76
2024/04/20 01:52:02;;;;;;;;;;;;;;;21.47;27.81;97149.59;5426498;26;718;-76
2024/04/20 01:54:27;;;;;;;;;;;;;;;21.31;27.76;97142.91;5426340;26;813;-76
2024/04/20 01:56:53;;;;;;;;;;;;;;;21.31;27.63;97142.91;5457940;26;737;-76
2024/04/20 01:59:18;;;;;;;;;;;;;;;21.29;27.91;97136.88;5457957;26;738;-75
2024/04/20 02:01:46;;;;;;;;;;;;;;;21.40;27.73;97127.22;5396820;26;1844;-76
2024/04/20 02:04:11;;;;;;;;;;;;;;;21.37;27.81;97126.13;5457982;26;760;-76
2024/04/20 02:06:37;;;;;;;;;;;;;;;21.37;27.79;97122.50;5458045;26;709;-76
2024/04/20 02:09:02;;;;;;;;;;;;;;;21.21;27.87;97115.78;5426496;26;931;-75
2024/04/20 02:11:28;;;;;;;;;;;;;;;21.63;27.25;97109.72;5457889;26;704;-76
2024/04/20 02:13:53;;;;;;;;;;;;;;;21.55;27.51;97094.25;5426102;26;773;-75
2024/04/20 02:16:19;;;;;;;;;;;;;;;21.36;27.75;97095.47;5337116;26;852;-76
2024/04/20 02:18:44;;;;;;;;;;;;;;;21.44;27.68;97082.59;5426289;26;753;-75
2024/04/20 02:21:11;;;;;;;;;;;;;;;21.20;28.14;97094.44;5353510;26;1842;-76
2024/04/20 02:23:41;;;;;;;;;;;;;;;21.14;28.38;97087.78;5354224;26;964;-76
2024/04/20 02:26:06;;;;;;;;;;;;;;;21.24;28.25;97092.25;5324707;26;1284;-75
2024/04/20 02:28:32;;;;;;;;;;;;;;;21.55;27.81;97085.78;5353900;26;1456;-76
2024/04/20 02:30:57;;;;;;;;;;;;;;;21.35;27.86;97079.72;5354038;26;761;-75
2024/04/20 02:33:23;;;;;;;;;;;;;;;21.12;28.08;97076.13;5347889;26;816;-75
2024/04/20 02:35:48;;;;;;;;;;;;;;;21.43;27.59;97081.03;5319426;26;852;-76
2024/04/20 02:38:14;;;;;;;;;;;;;;;21.44;27.72;97077.72;5318893;26;859;-76
2024/04/20 02:40:39;;;;;;;;;;;;;;;21.33;27.79;97071.69;5347876;26;1822;-75
2024/04/20 02:43:05;;;;;;;;;;;;;;;21.27;27.95;97067.88;5347770;26;888;-75
2024/04/20 02:45:31;;;;;;;;;;;;;;;21.19;28.21;97075.88;5347877;26;763;-76
2024/04/20 02:47:56;;;;;;;;;;;;;;;21.33;27.82;97083.81;5318784;26;830;-76
2024/04/20 02:50:22;;;;;;;;;;;;;;;21.25;27.99;97070.41;5347794;26;932;-76
2024/04/20 02:52:48;;;;;;;;;;;;;;;21.22;28.08;97072.09;5400333;26;790;-76
2024/04/20 02:55:13;;;;;;;;;;;;;;;21.44;27.51;97071.28;5388782;26;746;-75
2024/04/20 02:57:39;;;;;;;;;;;;;;;21.15;27.78;97078.06;5388262;26;690;-75
2024/04/20 03:00:05;;;;;;;;;;;;;;;21.10;28.24;97073.00;5418165;26;1847;-76
2024/04/20 03:02:32;;;;;;;;;;;;;;;21.38;27.78;97078.81;5418089;26;856;-75
2024/04/20 03:04:58;;;;;;;;;;;;;;;21.59;27.46;97072.25;5446569;26;785;-76
2024/04/20 03:07:24;;;;;;;;;;;;;;;21.38;27.88;97081.63;5457730;26;1082;-75
2024/04/20 03:09:49;;;;;;;;;;;;;;;21.30;27.96;97081.94;5457570;26;733;-76
2024/04/20 03:12:16;;;;;;;;;;;;;;;21.49;27.54;97084.81;5425562;26;785;-75
2024/04/20 03:14:41;;;;;;;;;;;;;;;21.28;27.77;97092.09;5457097;26;765;-76
2024/04/20 03:17:07;;;;;;;;;;;;;;;21.43;27.73;97075.34;5455126;26;718;-75
2024/04/20 03:19:32;;;;;;;;;;;;;;;21.10;28.25;97073.00;5456893;26;1822;-75
2024/04/20 03:21:58;;;;;;;;;;;;;;;21.31;27.63;97075.00;5382172;26;860;-76
2024/04/20 03:24:23;;;;;;;;;;;;;;;21.31;27.86;97075.00;5382644;26;849;-76
2024/04/20 03:26:49;;;;;;;;;;;;;;;21.45;27.69;97073.66;5382248;26;1003;-75
2024/04/20 03:29:14;;;;;;;;;;;;;;;21.47;27.77;97076.00;5382330;26;837;-76
2024/04/20 03:31:40;;;;;;;;;;;;;;;21.22;28.12;97089.06;5382310;26;735;-76
2024/04/20 03:34:05;;;;;;;;;;;;;;;21.40;27.77;97087.59;5382293;26;836;-76
2024/04/20 03:36:31;;;;;;;;;;;;;;;21.52;27.50;97103.69;5382190;26;809;-75
2024/04/20 03:38:56;;;;;;;;;;;;;;;21.47;27.64;97087.34;5381885;26;722;-75
2024/04/20 03:41:22;;;;;;;;;;;;;;;21.59;27.46;97090.03;5382034;26;1853;-76
2024/04/20 03:43:47;;;;;;;;;;;;;;;21.45;27.79;97084.16;5352995;26;758;-75
2024/04/20 03:46:13;;;;;;;;;;;;;;;21.36;27.85;97075.66;5352647;26;927;-75
2024/04/20 03:48:38;;;;;;;;;;;;;;;21.37;27.93;97071.56;5352807;26;1297;-75
2024/04/20 03:51:04;;;;;;;;;;;;;;;21.46;27.90;97068.78;5353548;26;993;-76
2024/04/20 03:53:30;;;;;;;;;;;;;;;21.40;27.98;97065.78;5433867;26;904;-76
2024/04/20 03:55:55;;;;;;;;;;;;;;;21.49;27.98;97071.44;5455611;26;1364;-76
2024/04/20 03:58:21;;;;;;;;;;;;;;;21.49;28.00;97084.81;5402530;26;1282;-75
2024/04/20 04:00:46;;;;;;;;;;;;;;;21.42;28.12;97091.56;5389617;26;1822;-77
2024/04/20 04:03:14;;;;;;;;;;;;;;;21.44;28.19;97083.38;5420951;26;945;-76
2024/04/20 04:05:40;;;;;;;;;;;;;;;21.41;28.16;97089.19;5360861;26;974;-75
2024/04/20 04:08:06;;;;;;;;;;;;;;;21.33;28.24;97080.19;5389036;26;1651;-75
2024/04/20 04:10:32;;;;;;;;;;;;;;;21.59;27.98;97095.69;5419924;26;1519;-75
2024/04/20 04:13:03;;;;;;;;;;;;;;;21.55;28.09;97094.25;5420936;26;980;-76
2024/04/20 04:15:28;;;;;;;;;;;;;;;21.62;27.95;97101.69;5420785;26;963;-76
2024/04/20 04:17:54;;;;;;;;;;;;;;;21.58;28.08;97093.34;5330128;26;957;-76
2024/04/20 04:20:19;;;;;;;;;;;;;;;21.62;28.09;97094.00;5420599;26;1822;-75
2024/04/20 04:22:45;;;;;;;;;;;;;;;21.35;28.56;97091.03;5420812;26;1017;-75
2024/04/20 04:25:10;;;;;;;;;;;;;;;21.46;28.31;97092.19;5389609;26;967;-76
2024/04/20 04:27:36;;;;;;;;;;;;;;;21.61;28.10;97097.28;5421469;26;973;-75
2024/04/20 04:30:01;;;;;;;;;;;;;;;21.50;28.41;97103.38;5389550;26;973;-76
2024/04/20 04:32:27;;;;;;;;;;;;;;;21.65;28.04;97101.53;5381979;26;959;-76
2024/04/20 04:34:53;;;;;;;;;;;;;;;21.46;28.24;97114.84;5381748;26;1065;-76
2024/04/20 04:37:18;;;;;;;;;;;;;;;21.49;28.22;97113.13;5353088;26;1001;-75
2024/04/20 04:39:44;;;;;;;;;;;;;;;21.46;28.30;97114.06;5381777;26;1827;-75
2024/04/20 04:42:09;;;;;;;;;;;;;;;21.62;28.09;97115.84;5352509;26;2337;-75
2024/04/20 04:44:37;;;;;;;;;;;;;;;21.53;28.30;97116.59;5352928;26;949;-76
2024/04/20 04:47:03;;;;;;;;;;;;;;;21.62;28.05;97115.84;5352716;26;1483;-76
2024/04/20 04:49:28;;;;;;;;;;;;;;;21.44;28.63;97110.88;5352653;26;914;-75
2024/04/20 04:51:54;;;;;;;;;;;;;;;21.49;28.35;97107.44;5381878;26;1015;-75
2024/04/20 04:54:20;;;;;;;;;;;;;;;21.43;28.46;97104.44;5382024;26;984;-75
2024/04/20 04:56:45;;;;;;;;;;;;;;;21.65;28.19;97098.69;5381586;26;951;-75
2024/04/20 04:59:11;;;;;;;;;;;;;;;21.51;28.33;97093.63;5381718;26;1202;-74
2024/04/20 05:01:38;;;;;;;;;;;;;;;21.25;28.85;97099.47;5352593;26;1821;-75
2024/04/20 05:04:04;;;;;;;;;;;;;;;21.48;28.52;97095.34;5410475;26;958;-75
2024/04/20 05:06:30;;;;;;;;;;;;;;;21.54;28.29;97098.34;5420432;26;1029;-74
2024/04/20 05:08:55;;;;;;;;;;;;;;;21.55;28.04;97099.91;5419916;26;960;-75
2024/04/20 05:11:21;;;;;;;;;;;;;;;21.52;28.53;97093.16;5419985;26;1044;-75
2024/04/20 05:13:46;;;;;;;;;;;;;;;21.51;28.50;97082.31;5419981;26;1024;-74
2024/04/20 05:16:12;;;;;;;;;;;;;;;21.54;28.39;97081.38;5419938;26;925;-75
2024/04/20 05:18:37;;;;;;;;;;;;;;;21.41;28.67;97075.06;5420099;26;901;-75
2024/04/20 05:21:03;;;;;;;;;;;;;;;21.39;28.82;97080.38;5419524;26;1822;-75
2024/04/20 05:23:28;;;;;;;;;;;;;;;21.24;28.99;97069.63;5420130;26;931;-75
2024/04/20 05:25:54;;;;;;;;;;;;;;;21.62;28.19;97068.50;5420004;26;1166;-75
2024/04/20 05:28:20;;;;;;;;;;;;;;;21.60;28.42;97073.84;5419753;26;896;-75
2024/04/20 05:30:45;;;;;;;;;;;;;;;21.68;28.28;97072.28;5388443;26;961;-76
2024/04/20 05:33:11;;;;;;;;;;;;;;;21.43;28.87;97064.81;5388144;26;1485;-75
2024/04/20 05:35:37;;;;;;;;;;;;;;;21.59;28.66;97055.28;5388253;26;1180;-76
2024/04/20 05:38:03;;;;;;;;;;;;;;;21.51;28.74;97054.00;5388422;26;1026;-76
2024/04/20 05:40:28;;;;;;;;;;;;;;;21.64;28.52;97063.16;5358947;26;1822;-76
2024/04/20 05:42:54;;;;;;;;;;;;;;;21.50;28.74;97055.25;5358987;26;1232;-75
2024/04/20 05:45:23;;;;;;;;;;;;;;;21.52;28.83;97059.19;5388211;26;1044;-76
2024/04/20 05:47:49;;;;;;;;;;;;;;;21.39;28.93;97057.72;5358873;26;1134;-76
2024/04/20 05:50:14;;;;;;;;;;;;;;;21.54;28.79;97058.72;5358841;26;1320;-76
2024/04/20 05:52:40;;;;;;;;;;;;;;;21.31;29.15;97058.03;5330286;26;1276;-76
2024/04/20 05:55:05;;;;;;;;;;;;;;;21.32;29.17;97045.44;5359120;26;991;-75
2024/04/20 05:57:31;;;;;;;;;;;;;;;21.61;28.83;97038.63;5419209;26;894;-75
2024/04/20 05:59:56;;;;;;;;;;;;;;;21.58;28.98;97039.56;5359036;26;1846;-76
2024/04/20 06:02:24;;;;;;;;;;;;;;;21.53;29.00;97028.84;5419068;26;977;-76
2024/04/20 06:04:51;;;;;;;;;;;;;;;21.69;28.70;97024.94;5359661;26;999;-76
2024/04/20 06:07:16;;;;;;;;;;;;;;;21.39;29.15;97032.25;5388085;26;929;-76
2024/04/20 06:09:42;;;;;;;;;;;;;;;21.68;28.62;97024.16;5418990;26;913;-75
2024/04/20 06:12:08;;;;;;;;;;;;;;;21.58;28.72;97036.72;5358590;26;918;-76
2024/04/20 06:14:34;;;;;;;;;;;;;;;21.58;28.96;97053.72;5418810;26;927;-76
2024/04/20 06:16:59;;;;;;;;;;;;;;;21.57;29.15;97058.59;5387589;26;978;-75
2024/04/20 06:19:25;;;;;;;;;;;;;;;21.66;28.77;97054.19;5358278;26;1621;-76
2024/04/20 06:21:50;;;;;;;;;;;;;;;21.42;29.21;97056.81;5387622;26;1826;-75
2024/04/20 06:24:16;;;;;;;;;;;;;;;21.57;28.93;97057.81;5387645;26;943;-76
2024/04/20 06:26:41;;;;;;;;;;;;;;;21.54;29.10;97053.06;5333395;26;1149;-75
2024/04/20 06:29:07;;;;;;;;;;;;;;;21.62;28.97;97059.22;5346357;26;1169;-76
2024/04/20 06:31:32;;;;;;;;;;;;;;;21.63;28.98;97055.94;5318042;26;1271;-76
2024/04/20 06:33:58;;;;;;;;;;;;;;;21.54;28.99;97053.06;5285033;27;1133;-76
2024/04/20 06:36:23;;;;;;;;;;;;;;;21.46;29.34;97046.13;5257382;27;1106;-76
2024/04/20 06:38:50;;;;;;;;;;;;;;;21.42;29.27;97045.50;5257191;27;1247;-75
2024/04/20 06:41:15;;;;;;;;;;;;;;;21.50;29.32;97052.41;5246373;27;1823;-76
2024/04/20 06:43:41;;;;;;;;;;;;;;;21.73;28.58;97057.53;5218474;27;962;-75
2024/04/20 06:46:08;;;;;;;;;;;;;;;21.50;28.99;97053.22;5218188;27;1126;-76
2024/04/20 06:48:35;;;;;;;;;;;;;;;21.39;29.25;97046.41;5218993;27;910;-76
2024/04/20 06:51:01;;;;;;;;;;;;;;;21.55;28.95;97054.63;5191104;27;1195;-75
2024/04/20 06:53:26;;;;;;;;;;;;;;;21.16;29.56;97050.56;5218223;27;905;-75
2024/04/20 06:55:52;;;;;;;;;;;;;;;21.66;29.00;97043.69;5190923;27;1274;-75
2024/04/20 06:58:18;;;;;;;;;;;;;;;21.62;28.85;97048.69;5246173;27;948;-75
2024/04/20 07:00:43;;;;;;;;;;;;;;;21.04;29.91;97035.25;5218131;27;1843;-75
2024/04/20 07:03:09;;;;;;;;;;;;;;;21.70;28.82;97044.28;5218536;27;970;-75
2024/04/20 07:05:34;;;;;;;;;;;;;;;21.75;28.72;97040.06;5295810;27;915;-76
2024/04/20 07:08:00;;;;;;;;;;;;;;;21.73;28.81;97054.69;5285110;27;989;-76
2024/04/20 07:10:25;;;;;;;;;;;;;;;21.53;28.98;97043.00;5285225;27;957;-76
2024/04/20 07:12:51;;;;;;;;;;;;;;;21.79;28.67;97041.47;5331004;26;989;-76
2024/04/20 07:15:16;;;;;;;;;;;;;;;21.76;28.62;97039.59;5349464;26;899;-76
2024/04/20 07:17:45;;;;;;;;;;;;;;;21.69;28.72;97047.59;5320534;26;910;-76
2024/04/20 07:20:10;;;;;;;;;;;;;;;21.78;28.73;97039.91;5320392;26;1831;-76
2024/04/20 07:22:36;;;;;;;;;;;;;;;21.40;29.21;97040.31;5350893;26;905;-76
2024/04/20 07:25:01;;;;;;;;;;;;;;;21.56;29.02;97050.56;5351030;26;880;-78
2024/04/20 07:27:27;;;;;;;;;;;;;;;21.65;28.91;97053.41;5284607;27;1186;-76
2024/04/20 07:29:52;;;;;;;;;;;;;;;21.65;29.11;97064.72;5313246;27;1015;-76
2024/04/20 07:32:18;;;;;;;;;;;;;;;21.81;28.86;97055.97;5217500;27;900;-76
2024/04/20 07:34:43;;;;;;;;;;;;;;;21.66;29.04;97059.84;5217694;27;957;-76
2024/04/20 07:37:09;;;;;;;;;;;;;;;21.55;29.10;97060.28;5217683;27;958;-75
2024/04/20 07:39:34;;;;;;;;;;;;;;;21.73;28.75;97071.69;5245125;27;1346;-76
2024/04/20 07:42:00;;;;;;;;;;;;;;;21.74;28.58;97059.09;5245408;27;1229;-77
2024/04/20 07:44:26;;;;;;;;;;;;;;;21.68;28.84;97058.13;5245349;27;967;-75
2024/04/20 07:47:00;;;;;;;;;;;;;;;21.56;29.01;97059.84;5217740;27;977;-75
2024/04/20 07:49:25;;;;;;;;;;;;;;;21.63;28.93;97061.59;5212727;27;1000;-76
2024/04/20 07:51:51;;;;;;;;;;;;;;;21.56;28.90;97062.69;5184686;27;911;-76
2024/04/20 07:54:19;;;;;;;;;;;;;;;21.63;28.98;97061.59;5211988;27;941;-77
2024/04/20 07:56:45;;;;;;;;;;;;;;;21.49;29.13;97062.94;5211834;27;1217;-76
2024/04/20 07:59:10;;;;;;;;;;;;;;;21.64;29.00;97051.84;5184510;27;958;-76
2024/04/20 08:01:36;;;;;;;;;;;;;;;21.49;29.10;97048.81;5184592;27;1824;-75
2024/04/20 08:04:02;;;;;;;;;;;;;;;21.42;29.47;97062.47;5196998;27;1089;-76
2024/04/20 08:06:27;;;;;;;;;;;;;;;21.65;28.90;97049.78;5256361;26;946;-76
2024/04/20 08:08:54;;;;;;;;;;;;;;;21.68;28.89;97052.47;5289155;26;1056;-75
2024/04/20 08:11:19;;;;;;;;;;;;;;;21.68;28.76;97038.31;5318530;26;1038;-76
2024/04/20 08:13:45;;;;;;;;;;;;;;;21.51;29.04;97029.31;5217736;27;944;-75
2024/04/20 08:16:11;;;;;;;;;;;;;;;21.31;29.39;97037.44;5189898;27;915;-76
2024/04/20 08:18:36;;;;;;;;;;;;;;;21.58;29.15;97039.56;5217081;27;900;-76
2024/04/20 08:21:02;;;;;;;;;;;;;;;21.75;28.79;97051.38;5275513;27;1842;-76
2024/04/20 08:23:27;;;;;;;;;;;;;;;21.32;29.24;97042.63;5284105;27;1174;-76
2024/04/20 08:25:53;;;;;;;;;;;;;;;21.26;29.54;97044.47;5284301;27;1233;-75
2024/04/20 08:28:18;;;;;;;;;;;;;;;21.30;29.46;97039.47;5312789;27;1085;-75
2024/04/20 08:30:44;;;;;;;;;;;;;;;21.61;29.05;97041.47;5244813;27;948;-75
2024/04/20 08:33:09;;;;;;;;;;;;;;;21.53;28.99;97043.78;5216886;27;1019;-76
2024/04/20 08:35:35;;;;;;;;;;;;;;;21.54;29.07;97033.25;5217003;27;938;-75
2024/04/20 08:38:01;;;;;;;;;;;;;;;21.69;28.83;97036.28;5216620;27;1303;-76
2024/04/20 08:40:26;;;;;;;;;;;;;;;21.44;29.27;97031.66;5216730;27;1823;-75
2024/04/20 08:42:52;;;;;;;;;;;;;;;21.51;29.18;97037.03;5211124;27;1178;-75
2024/04/20 08:45:19;;;;;;;;;;;;;;;21.52;29.11;97035.78;5259156;27;905;-76
2024/04/20 08:47:45;;;;;;;;;;;;;;;21.55;29.04;97037.66;5278347;27;979;-75
2024/04/20 08:50:10;;;;;;;;;;;;;;;21.40;29.46;97033.84;5250033;27;941;-75
2024/04/20 08:52:36;;;;;;;;;;;;;;;21.39;29.49;97026.59;5250012;27;1174;-76
2024/04/20 08:55:01;;;;;;;;;;;;;;;21.69;28.95;97031.41;5277294;27;944;-76
2024/04/20 08:57:27;;;;;;;;;;;;;;;21.40;29.33;97039.50;5278027;27;1267;-76
2024/04/20 08:59:52;;;;;;;;;;;;;;;21.79;28.59;97052.81;5278208;27;1823;-75
2024/04/20 09:02:21;;;;;;;;;;;;;;;21.64;28.93;97051.84;5353001;26;966;-76
2024/04/20 09:04:46;;;;;;;;;;;;;;;21.52;29.13;97050.72;5352138;26;945;-77
2024/04/20 09:07:12;;;;;;;;;;;;;;;21.59;28.94;97043.97;5352250;26;1604;-76
2024/04/20 09:09:37;;;;;;;;;;;;;;;21.38;29.31;97050.50;5381413;26;1349;-75
2024/04/20 09:12:03;;;;;;;;;;;;;;;21.50;29.25;97046.75;5352464;26;926;-75
2024/04/20 09:14:29;;;;;;;;;;;;;;;21.52;29.03;97044.25;5352391;26;976;-76
2024/04/20 09:16:54;;;;;;;;;;;;;;;21.53;28.60;97040.97;5323513;26;971;-76
2024/04/20 09:19:20;;;;;;;;;;;;;;;21.51;29.18;97042.69;5352446;26;889;-76
2024/04/20 09:21:45;;;;;;;;;;;;;;;21.77;28.78;97038.34;5353781;26;1847;-76
2024/04/20 09:24:13;;;;;;;;;;;;;;;21.57;28.79;97029.50;5324910;26;1325;-75
2024/04/20 09:26:38;;;;;;;;;;;;;;;21.60;28.68;97034.19;5382802;26;1179;-75
2024/04/20 09:29:05;;;;;;;;;;;;;;;21.64;28.66;97032.00;5382754;26;961;-76
2024/04/20 09:31:32;;;;;;;;;;;;;;;21.81;28.41;97016.34;5353394;26;1465;-76
2024/04/20 09:33:58;;;;;;;;;;;;;;;21.67;28.76;97025.44;5353899;26;953;-76
2024/04/20 09:36:23;;;;;;;;;;;;;;;21.35;29.13;97017.47;5324803;26;1129;-75
2024/04/20 09:38:49;;;;;;;;;;;;;;;21.33;29.07;97015.13;5382650;26;976;-76
2024/04/20 09:41:15;;;;;;;;;;;;;;;21.37;29.36;97021.41;5382873;26;1857;-75
2024/04/20 09:43:41;;;;;;;;;;;;;;;21.52;28.86;97019.56;5324869;26;1177;-73
2024/04/20 09:46:07;;;;;;;;;;;;;;;21.47;28.78;97008.09;5382489;26;970;-74
2024/04/20 09:48:32;;;;;;;;;;;;;;;21.60;28.40;97017.22;5382404;26;908;-74
2024/04/20 09:51:04;;;;;;;;;;;;;;;21.59;28.79;97010.00;5382345;26;948;-74
2024/04/20 09:53:31;;;;;;;;;;;;;;;21.38;29.14;97010.88;5382406;26;956;-74
2024/04/20 09:55:57;;;;;;;;;;;;;;;21.42;29.01;97014.38;5317095;26;1164;-74
2024/04/20 09:58:25;;;;;;;;;;;;;;;21.57;28.92;97018.16;5345867;26;894;-75
2024/04/20 10:00:50;;;;;;;;;;;;;;;21.68;28.65;97012.84;5327712;26;1861;-74
2024/04/20 10:03:16;;;;;;;;;;;;;;;21.57;28.88;97007.63;5364765;26;1455;-74
2024/04/20 10:05:42;;;;;;;;;;;;;;;21.63;28.75;97004.97;5321617;26;1631;-74
2024/04/20 10:08:09;;;;;;;;;;;;;;;21.53;28.90;97006.22;5328176;26;2058;-74
2024/04/20 10:10:37;;;;;;;;;;;;;;;21.59;28.84;97004.31;5325168;26;1449;-74
2024/04/20 10:13:03;;;;;;;;;;;;;;;21.71;28.70;96983.59;5292007;26;1279;-74
2024/04/20 10:15:29;;;;;;;;;;;;;;;21.40;29.18;96978.06;5329246;26;2089;-74
2024/04/20 10:17:54;;;;;;;;;;;;;;;21.40;28.98;96991.38;5354056;26;1539;-74
2024/04/20 10:20:29;;;;;;;;;;;;;;;21.47;29.17;96985.44;5354770;26;1849;-74
2024/04/20 10:22:55;;;;;;;;;;;;;;;21.61;28.94;96981.22;5292766;26;2441;-74
2024/04/20 10:25:20;;;;;;;;;;;;;;;21.48;29.06;96975.69;5319798;26;1135;-74
2024/04/20 10:27:48;;;;;;;;;;;;;;;21.48;29.13;96970.81;5319970;26;1105;-74
2024/04/20 10:30:16;;;;;;;;;;;;;;;21.64;29.04;96947.09;5319948;26;926;-74
2024/04/20 10:32:42;;;;;;;;;;;;;;;21.53;29.15;96943.94;5334054;26;1261;-75
2024/04/20 10:35:08;;;;;;;;;;;;;;;21.52;29.18;96959.34;5389866;26;1078;-74
2024/04/20 10:37:36;;;;;;;;;;;;;;;21.52;29.07;96954.47;5389991;26;952;-74
2024/04/20 10:40:11;;;;;;;;;;;;;;;21.33;29.51;96947.22;5389510;26;1849;-74
2024/04/20 10:42:37;;;;;;;;;;;;;;;21.47;29.24;96932.47;5389561;26;1043;-74
2024/04/20 10:45:06;;;;;;;;;;;;;;;21.56;29.33;96926.03;5360225;26;901;-74
2024/04/20 10:47:32;;;;;;;;;;;;;;;21.35;29.61;96926.91;5320602;26;1043;-75
2024/04/20 10:49:58;;;;;;;;;;;;;;;21.33;29.78;96925.34;5290714;26;1546;-74
2024/04/20 10:52:23;;;;;;;;;;;;;;;21.21;29.76;96940.41;5291125;26;1015;-75
2024/04/20 10:54:49;;;;;;;;;;;;;;;21.52;29.47;96929.00;5319398;26;908;-75
2024/04/20 10:57:14;;;;;;;;;;;;;;;21.36;29.35;96928.53;5319816;26;1027;-74
2024/04/20 10:59:44;;;;;;;;;;;;;;;21.43;29.44;96928.19;5319518;26;1840;-74
2024/04/20 11:02:11;;;;;;;;;;;;;;;21.51;29.26;96912.50;5319841;26;980;-75
2024/04/20 11:04:37;;;;;;;;;;;;;;;21.36;29.43;96905.88;5319324;26;1024;-74
2024/04/20 11:07:03;;;;;;;;;;;;;;;21.31;29.53;96904.47;5319242;26;1046;-74
2024/04/20 11:09:29;;;;;;;;;;;;;;;21.76;28.82;96895.22;5319674;26;1473;-74
2024/04/20 11:12:01;;;;;;;;;;;;;;;21.47;29.24;96889.22;5319494;26;994;-74
2024/04/20 11:14:27;;;;;;;;;;;;;;;21.52;29.22;96880.88;5347957;26;1383;-73
2024/04/20 11:16:53;;;;;;;;;;;;;;;21.51;29.09;96872.88;5290899;26;1590;-74
2024/04/20 11:19:19;;;;;;;;;;;;;;;21.35;29.52;96864.66;5346425;26;894;-74
2024/04/20 11:21:45;;;;;;;;;;;;;;;21.28;29.31;96863.69;5388986;26;1829;-74
2024/04/20 11:24:10;;;;;;;;;;;;;;;21.71;28.82;96853.38;5388915;26;1120;-75
2024/04/20 11:26:36;;;;;;;;;;;;;;;21.46;29.16;96860.13;5359282;26;1202;-74
2024/04/20 11:29:01;;;;;;;;;;;;;;;21.51;29.08;96867.22;5388921;26;1083;-75
2024/04/20 11:31:27;;;;;;;;;;;;;;;21.60;28.93;96875.69;5388712;26;971;-77
2024/04/20 11:33:53;;;;;;;;;;;;;;;21.46;29.41;96876.34;5330429;26;1099;-75
2024/04/20 11:36:18;;;;;;;;;;;;;;;21.53;29.11;96873.19;5388922;26;987;-75
2024/04/20 11:38:45;;;;;;;;;;;;;;;21.53;29.37;96887.34;5388490;26;2009;-76
2024/04/20 11:41:11;;;;;;;;;;;;;;;21.37;29.49;96879.16;5388318;26;1825;-76
2024/04/20 11:43:39;;;;;;;;;;;;;;;21.73;28.90;96886.84;5413208;26;975;-76
2024/04/20 11:46:04;;;;;;;;;;;;;;;21.53;29.28;96893.00;5355351;26;1271;-76
2024/04/20 11:48:30;;;;;;;;;;;;;;;21.53;29.10;96904.31;5384353;26;957;-75
2024/04/20 11:51:04;;;;;;;;;;;;;;;21.58;29.09;96912.19;5354901;26;1340;-75
2024/04/20 11:56:17;;;;;;;;;;;;;;;21.35;29.55;96915.59;5382894;26;1034;-76
2024/04/20 11:58:49;;;;;;;;;;;;;;;21.53;29.23;96909.97;5324462;26;1187;-75
2024/04/20 12:01:15;;;;;;;;;;;;;;;21.27;29.52;96906.63;5324968;26;1830;-76
2024/04/20 12:03:40;;;;;;;;;;;;;;;21.69;28.95;96906.81;5382595;26;963;-75
2024/04/20 12:06:09;;;;;;;;;;;;;;;21.80;28.90;96901.47;5353315;26;1121;-76
2024/04/20 12:08:41;;;;;;;;;;;;;;;21.53;29.23;96893.00;5324232;26;1510;-75
2024/04/20 12:11:07;;;;;;;;;;;;;;;21.55;29.07;96879.97;5324213;26;1050;-76
2024/04/20 12:13:32;;;;;;;;;;;;;;;21.57;29.17;96887.97;5353016;26;1087;-77
2024/04/20 12:15:58;;;;;;;;;;;;;;;21.29;29.58;96879.41;5324294;26;946;-75
2024/04/20 12:18:23;;;;;;;;;;;;;;;21.50;29.11;96871.28;5352625;26;1156;-76
2024/04/20 12:20:50;;;;;;;;;;;;;;;21.45;29.17;96884.03;5324051;26;1833;-75
2024/04/20 12:23:15;;;;;;;;;;;;;;;21.26;29.60;96891.69;5324421;26;960;-76
2024/04/20 12:25:48;;;;;;;;;;;;;;;21.78;28.59;96892.69;5353126;26;1109;-75
2024/04/20 12:28:14;;;;;;;;;;;;;;;21.53;29.17;96898.66;5354576;26;953;-75
2024/04/20 12:30:39;;;;;;;;;;;;;;;21.43;29.38;96900.69;5352958;26;1089;-76
2024/04/20 12:33:05;;;;;;;;;;;;;;;21.50;29.13;96906.06;5383218;26;959;-76
2024/04/20 12:35:32;;;;;;;;;;;;;;;21.54;29.15;96914.38;5353940;26;1116;-75
2024/04/20 12:37:58;;;;;;;;;;;;;;;21.54;29.20;96922.88;5352725;26;955;-75
2024/04/20 12:40:23;;;;;;;;;;;;;;;21.50;29.31;96922.22;5323953;26;1837;-75
2024/04/20 12:42:49;;;;;;;;;;;;;;;21.42;29.29;96921.75;5352719;26;1097;-76
2024/04/20 12:45:14;;;;;;;;;;;;;;;21.51;29.32;96929.47;5352830;26;982;-75
2024/04/20 12:47:41;;;;;;;;;;;;;;;21.47;29.65;96928.84;5294998;26;1311;-76
2024/04/20 12:50:06;;;;;;;;;;;;;;;21.51;29.18;96927.44;5352587;26;1063;-75
2024/04/20 12:52:32;;;;;;;;;;;;;;;21.70;28.95;96941.59;5311771;27;1040;-75
2024/04/20 12:54:58;;;;;;;;;;;;;;;21.72;28.87;96934.22;5255349;27;1224;-75
2024/04/20 12:57:25;;;;;;;;;;;;;;;21.21;29.77;96934.75;5283309;27;1239;-76